^^
Station Historical Data
Daily Summary for November 2, 2017 Units:  Metric    English   Both
« Previous Day
Next Day »
Daily Weekly Monthly Yearly Custom
  High: Low: Average:
Temperature: 33.2 °C 18.7 °C 24 °C
Dew Point: 17.7 °C 10.3 °C 15.4 °C
Humidity: 87% 25% 63%
Wind Speed: 25.9km/h 0km/h 5.3km/h
Wind Gust: 35.4km/h - -
Wind- - SE
Pressure: 1011.4 hPa 1005.3 hPa -
Precipitation: 2.29 mm    
Historical Graphs
 
 
Tabular Data for November 2, 2017
Time Temperature Dew Point Pressure Wind Wind Speed Wind Gust Humidity Rainfall Rate (Hourly) solar Conditions
02:46 20.7 °C 16.9 °C 1008 hPa Calm     79% 0 mm 0.0 W/m2
02:51 20.7 °C 16.9 °C 1008 hPa Calm     79% 0 mm 0.0 W/m2
02:56 20.7 °C 16.9 °C 1008 hPa Calm     79% 0 mm 0.0 W/m2
03:01 20.6 °C 16.8 °C 1008 hPa Calm     79% 0 mm 0.0 W/m2
03:11 20.6 °C 16.8 °C 1007.7 hPa Calm     79% 0 mm 0.0 W/m2
03:16 20.6 °C 17 °C 1007.7 hPa Calm     80% 0 mm 0.0 W/m2
03:21 20.6 °C 16.8 °C 1007.7 hPa Calm     79% 0 mm 0.0 W/m2
03:26 20.7 °C 16.3 °C 1007.7 hPa Calm     76% 0 mm 0.0 W/m2
03:32 20.9 °C 16.1 °C 1008 hPa Calm     74% 0 mm 0.0 W/m2
03:37 21 °C 16.2 °C 1008.4 hPa Calm     74% 0 mm 0.0 W/m2
03:42 21 °C 16 °C 1008.4 hPa Calm     73% 0 mm 0.0 W/m2
03:47 21.1 °C 16.1 °C 1008.4 hPa Calm     73% 0 mm 0.0 W/m2
03:52 21.2 °C 16.4 °C 1008.4 hPa NNE 9.7 km/h 9.7 km/h 74% 0 mm 0.0 W/m2
03:58 21.2 °C 16.4 °C 1008.4 hPa Calm     74% 0 mm 0.0 W/m2
04:03 21.1 °C 16.5 °C 1008.4 hPa Calm     75% 0 mm 0.0 W/m2
04:08 21 °C 16.4 °C 1008.7 hPa Calm     75% 0 mm 0.0 W/m2
04:13 20.9 °C 16.5 °C 1008.7 hPa Calm     76% 0 mm 0.0 W/m2
04:18 20.8 °C 16.6 °C 1008.7 hPa Calm     77% 0 mm 0.0 W/m2
04:23 20.7 °C 16.5 °C 1008.7 hPa Calm     77% 0 mm 0.0 W/m2
04:28 20.7 °C 16.7 °C 1008.7 hPa Calm     78% 0 mm 0.0 W/m2
04:39 20.6 °C 16.6 °C 1008.7 hPa Calm     78% 0 mm 0.0 W/m2
04:49 20.3 °C 16.7 °C 1008.7 hPa Calm     80% 0 mm 0.0 W/m2
04:54 20.2 °C 16.8 °C 1008.7 hPa Calm     81% 0 mm 0.0 W/m2
04:59 20.1 °C 16.7 °C 1008.7 hPa Calm     81% 0 mm 0.0 W/m2
05:04 19.9 °C 16.7 °C 1008.7 hPa Calm     82% 0 mm 0.0 W/m2
05:09 19.8 °C 16.6 °C 1008.7 hPa Calm     82% 0 mm 0.0 W/m2
05:14 19.7 °C 16.7 °C 1008.7 hPa Calm     83% 0 mm 0.0 W/m2
05:19 19.5 °C 16.5 °C 1008.7 hPa Calm     83% 0 mm 0.0 W/m2
05:25 19.4 °C 16.6 °C 1008.7 hPa Calm     84% 0 mm 0.0 W/m2
05:30 19.3 °C 16.5 °C 1008.7 hPa Calm     84% 0 mm 0.0 W/m2
05:35 19.2 °C 16.6 °C 1008.7 hPa Calm     85% 0 mm 0.0 W/m2
05:40 19.1 °C 16.5 °C 1009 hPa Calm     85% 0 mm 0.0 W/m2
05:45 19.1 °C 16.5 °C 1009 hPa Calm     85% 0 mm 0.0 W/m2
05:50 19 °C 16.4 °C 1009 hPa Calm     85% 0 mm 0.0 W/m2
05:55 19 °C 16.4 °C 1009 hPa Calm     85% 0 mm 0.0 W/m2
06:00 19 °C 16.4 °C 1009 hPa Calm     85% 0 mm 0.0 W/m2
06:10 18.8 °C 16.4 °C 1009 hPa Calm     86% 0 mm 7.0 W/m2
06:15 18.8 °C 16.6 °C 1009 hPa Calm     87% 0 mm 9.0 W/m2
06:21 18.7 °C 16.5 °C 1009 hPa Calm     87% 0 mm 12.0 W/m2
06:26 18.7 °C 16.5 °C 1009 hPa Calm     87% 0 mm 26.0 W/m2
06:31 18.8 °C 16.4 °C 1009 hPa Calm     86% 0 mm 30.0 W/m2
06:36 19.1 °C 16.5 °C 1009 hPa Calm     85% 0 mm 56.0 W/m2
06:46 19.7 °C 16.5 °C 1009 hPa Calm     82% 0 mm 93.0 W/m2
06:51 19.9 °C 16.3 °C 1009.4 hPa Calm     80% 0 mm 111.0 W/m2
06:57 20.3 °C 16.5 °C 1009.4 hPa Calm     79% 0 mm 128.0 W/m2
07:06 20.9 °C 16.7 °C 1009.4 hPa Calm     77% 0 mm 169.0 W/m2
07:11 21.2 °C 16.8 °C 1009.4 hPa Calm     76% 0 mm 188.0 W/m2
07:16 21.6 °C 16.8 °C 1009.4 hPa Calm     74% 0 mm 209.0 W/m2
07:27 21.9 °C 16.6 °C 1009.7 hPa Calm     72% 0 mm 243.0 W/m2
07:34 21.9 °C 16.6 °C 1009.7 hPa Calm     72% 0 mm 243.0 W/m2
07:49 22.5 °C 16.1 °C 1010 hPa Calm     67% 0 mm 294.0 W/m2
08:05 23.2 °C 15.5 °C 1010 hPa Calm     62% 0 mm 345.0 W/m2
08:13 23.5 °C 15.5 °C 1010 hPa Calm     61% 0 mm 397.0 W/m2
08:21 23.5 °C 15.5 °C 1010 hPa Calm     61% 0 mm 397.0 W/m2
08:41 24.2 °C 15.9 °C 1010 hPa NNE 6.4 km/h 12.9 km/h 60% 0 mm 464.0 W/m2
08:59 24.5 °C 15.4 °C 1010.4 hPa Calm   8 km/h 57% 0 mm 531.0 W/m2
09:13 24.9 °C 15.8 °C 1010.4 hPa Calm   12.9 km/h 57% 0 mm 577.0 W/m2
09:19 25.2 °C 15.8 °C 1010 hPa NNE 7.9 km/h 14.5 km/h 56% 0 mm 621.0 W/m2
09:34 25.4 °C 15.1 °C 1010 hPa North 9.7 km/h 20.9 km/h 53% 0 mm 654.0 W/m2
09:54 26 °C 15.7 °C 1010 hPa North 9.7 km/h 20.9 km/h 53% 0 mm 705.0 W/m2
10:09 26.7 °C 14.8 °C 1010 hPa NNE 11.1 km/h 19.3 km/h 48% 0 mm 309.0 W/m2
10:22 26.3 °C 15 °C 1010 hPa North 11.1 km/h 20.9 km/h 50% 0 mm 359.0 W/m2
10:32 26.6 °C 14.4 °C 1010 hPa North 11.1 km/h 17.7 km/h 47% 0 mm 436.0 W/m2
10:40 26.7 °C 14.1 °C 1010 hPa Calm   16.1 km/h 46% 0 mm 371.0 W/m2
10:44 26.8 °C 13.9 °C 1009.7 hPa North 6.4 km/h 19.3 km/h 45% 0 mm 392.0 W/m2
10:53 26.8 °C 13.9 °C 1009.7 hPa North 13 km/h 19.3 km/h 45% 0 mm 571.0 W/m2
10:59 27.2 °C 14.2 °C 1009.7 hPa North 7.9 km/h 16.1 km/h 45% 0 mm 429.0 W/m2
11:06 27.2 °C 14.2 °C 1009.7 hPa North 7.9 km/h 16.1 km/h 45% 0 mm 429.0 W/m2
11:14 27.5 °C 14.2 °C 1009.4 hPa North 9.7 km/h 11.3 km/h 44% 0 mm 427.0 W/m2
11:35 27.9 °C 14.5 °C 1009 hPa North 11.1 km/h 22.5 km/h 44% 0 mm 308.0 W/m2
11:50 28.6 °C 13.7 °C 1009 hPa North 11.1 km/h 25.7 km/h 40% 0 mm 429.0 W/m2
12:05 28.8 °C 13.5 °C 1008.7 hPa North 14.3 km/h 22.5 km/h 39% 0 mm 642.0 W/m2
12:13 29.3 °C 13.1 °C 1008.7 hPa North 1.4 km/h 24.1 km/h 37% 0 mm 585.0 W/m2
12:24 29.8 °C 12.7 °C 1008.4 hPa Calm   17.7 km/h 35% 0 mm 501.0 W/m2
12:33 30.1 °C 12.1 °C 1008.4 hPa North 11.1 km/h 22.5 km/h 33% 0 mm 533.0 W/m2
12:40 30.1 °C 11.6 °C 1008.4 hPa NNE 6.4 km/h 24.1 km/h 32% 0 mm 392.0 W/m2
12:51 30.5 °C 11.5 °C 1008 hPa Calm   24.1 km/h 31% 0 mm 738.0 W/m2
13:25 31.9 °C 12.7 °C 1007.3 hPa Calm   24.1 km/h 31% 0 mm 708.0 W/m2
13:31 31.9 °C 12.7 °C 1007.3 hPa Calm   24.1 km/h 31% 0 mm 708.0 W/m2
13:40 32.6 °C 12.8 °C 1007 hPa North 1.4 km/h 25.7 km/h 30% 0 mm 979.0 W/m2
13:47 32.6 °C 12.8 °C 1007 hPa North 1.4 km/h 25.7 km/h 30% 0 mm 979.0 W/m2
14:01 32.6 °C 11.7 °C 1006.3 hPa NNE 9.7 km/h 22.5 km/h 28% 0 mm 404.0 W/m2
14:17 32.9 °C 10.3 °C 1006.3 hPa NNE 13 km/h 33.8 km/h 25% 0 mm 422.0 W/m2
14:25 33.2 °C 11.1 °C 1006 hPa NNE 19.5 km/h 35.4 km/h 26% 0 mm 387.0 W/m2
14:32 33.2 °C 11.1 °C 1006 hPa NNE 19.5 km/h 35.4 km/h 26% 0 mm 387.0 W/m2
14:40 32.8 °C 11.9 °C 1005.6 hPa NW 25.9 km/h 25.9 km/h 28% 0 mm 253.0 W/m2
15:20 31.8 °C 11.6 °C 1005.3 hPa North 13 km/h 19.3 km/h 29% 0 mm 193.0 W/m2
15:51 31.8 °C 11 °C 1005.3 hPa NW 19.5 km/h 24.1 km/h 28% 0 mm 118.0 W/m2
16:10 31.7 °C 11 °C 1005.3 hPa NW 14.3 km/h 22.5 km/h 28% 0 mm 88.0 W/m2
16:19 31.6 °C 11.4 °C 1005.3 hPa NNW 19.5 km/h 24.1 km/h 29% 0 mm 127.0 W/m2
16:29 31.6 °C 11.9 °C 1005.3 hPa NW 13 km/h 22.5 km/h 30% 0 mm 116.0 W/m2
16:43 30.8 °C 13.6 °C 1005.6 hPa West 20.9 km/h 32.2 km/h 35% 0 mm 72.0 W/m2
16:59 29.6 °C 15 °C 1006 hPa SSW 20.9 km/h 29 km/h 41% 0 mm 49.0 W/m2
17:16 25.6 °C 15.6 °C 1006.3 hPa SSW 22.7 km/h 29 km/h 54% 0 mm 90.0 W/m2
17:26 25.3 °C 15.9 °C 1006.3 hPa SSW 19.5 km/h 25.7 km/h 56% 0 mm 121.0 W/m2
17:37 25.6 °C 16.2 °C 1006.3 hPa SSW 13 km/h 25.7 km/h 56% 0 mm 195.0 W/m2
17:52 25.2 °C 15.5 °C 1006.3 hPa SSW 20.9 km/h 29 km/h 55% 0 mm 83.0 W/m2
18:06 24.8 °C 15.7 °C 1006.3 hPa SSW 19.5 km/h 24.1 km/h 57% 0 mm 69.0 W/m2
18:23 24.7 °C 15.9 °C 1007 hPa SSE 17.7 km/h 20.9 km/h 58% 0 mm 39.0 W/m2
18:53 24.6 °C 16.3 °C 1009 hPa SW 4.7 km/h 14.5 km/h 60% 0 mm 0.0 W/m2
19:09 23 °C 17.5 °C 1009.4 hPa Calm     71% 1.52 mm 0.0 W/m2
19:17 22.6 °C 17.7 °C 1009 hPa ENE 4.7 km/h 9.7 km/h 74% 2.03 mm 0.0 W/m2
19:32 21.9 °C 17.1 °C 1009 hPa ENE 24.1 km/h 24.1 km/h 74% 2.03 mm 0.0 W/m2
19:54 21.2 °C 16.8 °C 1008.7 hPa East 24.1 km/h 32.2 km/h 76% 1.52 mm 0.0 W/m2
20:08 21.2 °C 17 °C 1009 hPa East 17.7 km/h 24.1 km/h 77% 0.51 mm 0.0 W/m2
20:24 21.6 °C 17.2 °C 1009.4 hPa ESE 9.7 km/h 14.5 km/h 76% 0 mm 0.0 W/m2
20:39 22 °C 17.2 °C 1010 hPa Calm     74% 0 mm 0.0 W/m2
20:55 22.1 °C 17.7 °C 1010 hPa Calm     76% 0 mm 0.0 W/m2
21:11 22.4 °C 17.5 °C 1010.4 hPa Calm     74% 0 mm 0.0 W/m2
21:55 23.2 °C 17 °C 1011.4 hPa Calm     68% 0 mm 0.0 W/m2
22:02 23.1 °C 17.6 °C 1011.4 hPa Calm     71% 0.51 mm 0.0 W/m2
Canyon Roadhouse, Fishriver Canyon, Namibia
Compliments of Weather Underground - 2.25 mb